createdAt,value
2023-02-19T00:01:11.802Z,11.59
2023-02-19T00:04:20.057Z,11.63
2023-02-19T00:07:23.179Z,11.61
2023-02-19T00:10:26.098Z,11.50
2023-02-19T00:13:29.578Z,11.53
2023-02-19T00:16:33.635Z,11.61
2023-02-19T00:19:36.483Z,11.91
2023-02-19T00:22:39.666Z,11.91
2023-02-19T00:25:42.460Z,12.17
2023-02-19T00:28:47.341Z,12.31
2023-02-19T00:31:50.996Z,12.36
2023-02-19T00:34:54.256Z,12.41
2023-02-19T00:37:57.107Z,12.37
2023-02-19T00:41:00.660Z,12.42
2023-02-19T00:44:08.468Z,12.41
2023-02-19T00:47:11.447Z,12.26
2023-02-19T00:50:16.250Z,12.29
2023-02-19T00:53:19.368Z,12.23
2023-02-19T00:56:22.571Z,12.12
2023-02-19T00:59:25.643Z,12.22
2023-02-19T01:02:28.774Z,12.16
2023-02-19T01:05:31.790Z,12.14
2023-02-19T01:08:39.368Z,12.09
2023-02-19T01:11:42.377Z,12.04
2023-02-19T01:14:45.487Z,12.06
2023-02-19T01:17:48.420Z,11.98
2023-02-19T01:20:52.263Z,12.05
2023-02-19T01:23:55.999Z,11.94
2023-02-19T01:27:01.332Z,11.93
2023-02-19T01:30:04.747Z,11.87
2023-02-19T01:33:12.705Z,11.96
2023-02-19T01:36:16.220Z,11.93
2023-02-19T01:39:19.410Z,11.92
2023-02-19T01:42:22.631Z,11.93
2023-02-19T01:45:31.062Z,11.83
2023-02-19T01:48:38.424Z,11.80
2023-02-19T01:51:49.340Z,11.83
2023-02-19T01:54:55.332Z,11.68
2023-02-19T01:57:59.207Z,11.57
2023-02-19T02:01:04.662Z,11.56
2023-02-19T02:04:11.150Z,11.54
2023-02-19T02:07:33.166Z,11.59
2023-02-19T02:10:36.961Z,11.53
2023-02-19T02:13:40.604Z,11.54
2023-02-19T02:17:13.046Z,11.55
2023-02-19T02:20:16.243Z,11.58
2023-02-19T02:23:28.063Z,11.52
2023-02-19T02:26:42.154Z,11.54
2023-02-19T02:29:51.608Z,11.60
2023-02-19T02:33:00.431Z,11.66
2023-02-19T02:36:13.037Z,11.77
2023-02-19T02:39:24.479Z,11.77
2023-02-19T02:42:27.568Z,11.89
2023-02-19T02:45:39.953Z,11.96
2023-02-19T02:49:05.401Z,12.06
2023-02-19T02:52:31.087Z,12.04
2023-02-19T02:55:38.114Z,12.08
2023-02-19T02:58:43.323Z,12.06
2023-02-19T03:02:14.271Z,12.11
2023-02-19T03:05:41.520Z,12.00
2023-02-19T03:09:00.341Z,12.09
2023-02-19T03:12:24.313Z,12.11
2023-02-19T03:15:52.602Z,12.04
2023-02-19T03:19:18.160Z,11.94
2023-02-19T03:22:30.210Z,11.99
2023-02-19T03:25:56.800Z,11.88
2023-02-19T03:29:26.603Z,11.86
2023-02-19T03:33:03.034Z,11.71
2023-02-19T03:36:10.481Z,11.69
2023-02-19T03:39:17.753Z,11.57
2023-02-19T03:42:26.082Z,11.53
2023-02-19T03:45:38.801Z,11.54
2023-02-19T03:48:53.400Z,11.55
2023-02-19T03:52:11.446Z,11.36
2023-02-19T03:55:27.256Z,11.22
2023-02-19T03:58:40.380Z,11.00
2023-02-19T04:02:00.905Z,10.66
2023-02-19T04:05:11.637Z,10.49
2023-02-19T04:08:19.363Z,10.48
2023-02-19T04:11:30.630Z,10.19
2023-02-19T04:14:47.498Z,10.15
2023-02-19T04:18:22.795Z,10.02
2023-02-19T04:21:29.510Z,10.07
2023-02-19T04:24:38.917Z,9.98
2023-02-19T04:27:45.054Z,9.81
2023-02-19T04:30:48.282Z,9.82
2023-02-19T04:33:51.257Z,9.85
2023-02-19T04:36:54.262Z,9.85
2023-02-19T04:39:57.089Z,9.86
2023-02-19T04:43:00.433Z,9.95
2023-02-19T04:46:03.718Z,9.97
2023-02-19T04:49:06.748Z,9.92
2023-02-19T04:52:10.190Z,9.91
2023-02-19T04:55:13.099Z,9.86
2023-02-19T04:58:15.951Z,9.76
2023-02-19T05:01:19.062Z,9.71
2023-02-19T05:04:22.089Z,9.75
2023-02-19T05:07:25.055Z,9.73
2023-02-19T05:10:27.991Z,9.52
2023-02-19T05:13:31.782Z,9.52
2023-02-19T05:16:35.053Z,9.57
2023-02-19T05:19:38.011Z,9.65
2023-02-19T05:22:41.023Z,9.53
2023-02-19T05:25:44.061Z,9.55
2023-02-19T05:28:49.649Z,9.58
2023-02-19T05:31:52.698Z,9.52
2023-02-19T05:34:55.702Z,9.54
2023-02-19T05:38:00.738Z,9.61
2023-02-19T05:41:08.883Z,9.55
2023-02-19T05:44:11.912Z,9.41
2023-02-19T05:47:14.841Z,9.46
2023-02-19T05:50:18.773Z,9.14
2023-02-19T05:53:21.631Z,9.20
2023-02-19T05:56:33.780Z,9.20
2023-02-19T05:59:36.686Z,9.11
2023-02-19T06:02:39.721Z,9.26
2023-02-19T06:05:42.713Z,9.25
2023-02-19T06:08:46.083Z,9.19
2023-02-19T06:11:49.177Z,9.13
2023-02-19T06:14:52.239Z,9.00
2023-02-19T06:17:55.261Z,8.97
2023-02-19T06:21:06.175Z,8.75
2023-02-19T06:24:10.061Z,8.90
2023-02-19T06:27:13.045Z,8.99
2023-02-19T06:30:16.037Z,9.00
2023-02-19T06:33:19.609Z,8.99
2023-02-19T06:36:23.564Z,8.84
2023-02-19T06:39:26.814Z,8.76
2023-02-19T06:42:33.156Z,8.83
2023-02-19T06:45:36.081Z,9.05
2023-02-19T06:48:40.497Z,9.21
2023-02-19T06:51:43.548Z,8.91
2023-02-19T06:54:46.428Z,9.04
2023-02-19T06:57:49.381Z,9.03
2023-02-19T07:00:54.071Z,9.01
2023-02-19T07:03:57.381Z,8.86
2023-02-19T07:07:00.381Z,8.94
2023-02-19T07:10:04.119Z,8.82
2023-02-19T07:13:08.362Z,9.00
2023-02-19T07:16:12.513Z,8.97
2023-02-19T07:19:16.041Z,9.06
2023-02-19T07:22:19.079Z,9.15
2023-02-19T07:25:24.500Z,9.26
2023-02-19T07:28:27.701Z,9.13
2023-02-19T07:31:31.091Z,8.92
2023-02-19T07:34:34.234Z,9.16
2023-02-19T07:37:37.177Z,9.02
2023-02-19T07:40:40.130Z,9.00
2023-02-19T07:43:43.249Z,9.17
2023-02-19T07:46:46.115Z,9.15
2023-02-19T07:49:49.095Z,9.32
2023-02-19T07:52:52.492Z,9.17
2023-02-19T07:56:03.982Z,9.30
2023-02-19T07:59:06.921Z,9.29
2023-02-19T08:02:37.069Z,9.06
2023-02-19T08:05:42.951Z,8.96
2023-02-19T08:08:45.937Z,9.17
2023-02-19T08:12:10.815Z,9.30
2023-02-19T08:15:13.672Z,9.28
2023-02-19T08:18:18.545Z,9.50
2023-02-19T08:21:21.541Z,9.53
2023-02-19T08:24:25.061Z,9.61
2023-02-19T08:27:28.053Z,9.74
2023-02-19T08:30:33.044Z,9.74
2023-02-19T08:33:36.730Z,9.98
2023-02-19T08:36:39.628Z,10.05
2023-02-19T08:39:42.624Z,10.13
2023-02-19T08:42:46.189Z,10.29
2023-02-19T08:45:53.617Z,10.30
2023-02-19T08:48:56.615Z,10.27
2023-02-19T08:51:59.505Z,10.13
2023-02-19T08:55:04.124Z,10.12
2023-02-19T08:58:07.151Z,10.25
2023-02-19T09:01:16.675Z,10.32
2023-02-19T09:04:19.556Z,10.43
2023-02-19T09:07:23.183Z,10.57
2023-02-19T09:10:27.934Z,10.79
2023-02-19T09:13:31.496Z,10.95
2023-02-19T09:16:35.715Z,11.03
2023-02-19T09:19:41.314Z,11.10
2023-02-19T09:22:44.177Z,10.89
2023-02-19T09:25:47.971Z,10.93
2023-02-19T09:28:50.954Z,10.62
2023-02-19T09:32:01.343Z,10.41
2023-02-19T09:35:04.448Z,10.38
2023-02-19T09:38:07.445Z,10.51
2023-02-19T09:41:25.075Z,10.57
2023-02-19T09:44:32.645Z,10.68
2023-02-19T09:47:35.870Z,10.75
2023-02-19T09:50:42.810Z,10.82
2023-02-19T09:53:50.892Z,10.95
2023-02-19T09:57:00.078Z,11.05
2023-02-19T10:00:23.896Z,11.15
2023-02-19T10:03:41.365Z,11.38
2023-02-19T10:06:44.664Z,11.40
2023-02-19T10:09:53.619Z,11.47
2023-02-19T10:13:10.091Z,11.55
2023-02-19T10:16:17.689Z,11.91
2023-02-19T10:19:20.629Z,12.03
2023-02-19T10:22:24.500Z,12.30
2023-02-19T10:25:27.824Z,12.72
2023-02-19T10:28:34.248Z,13.03
2023-02-19T10:31:38.093Z,13.27
2023-02-19T10:34:41.127Z,13.85
2023-02-19T10:37:47.333Z,14.42
2023-02-19T10:40:59.155Z,14.75
2023-02-19T10:44:14.356Z,14.84
2023-02-19T10:47:21.435Z,15.16
2023-02-19T10:50:31.063Z,15.27
2023-02-19T10:53:47.722Z,15.04
2023-02-19T10:56:50.571Z,14.96
2023-02-19T11:00:01.239Z,14.82
2023-02-19T11:03:21.200Z,14.67
2023-02-19T11:06:27.117Z,15.12
2023-02-19T11:10:00.386Z,15.10
2023-02-19T11:13:06.206Z,14.61
2023-02-19T11:16:09.376Z,14.60
2023-02-19T11:19:36.442Z,14.65
2023-02-19T11:22:47.040Z,14.49
2023-02-19T11:25:53.092Z,14.89
2023-02-19T11:29:01.520Z,15.51
2023-02-19T11:32:24.964Z,15.73
2023-02-19T11:35:29.085Z,15.61
2023-02-19T11:38:32.354Z,15.47
2023-02-19T11:41:41.592Z,15.29
2023-02-19T11:45:20.207Z,15.12
2023-02-19T11:48:32.569Z,15.40
2023-02-19T11:51:41.440Z,15.51
2023-02-19T11:55:07.633Z,15.79
2023-02-19T11:58:41.491Z,15.98
2023-02-19T12:02:12.271Z,15.59
2023-02-19T12:05:34.009Z,15.65
2023-02-19T12:09:16.526Z,15.81
2023-02-19T12:12:34.774Z,15.97
2023-02-19T12:16:05.319Z,16.70
2023-02-19T12:19:50.979Z,17.02
2023-02-19T12:23:22.013Z,17.01
2023-02-19T12:26:32.898Z,16.37
2023-02-19T12:29:59.388Z,16.07
2023-02-19T12:33:11.869Z,15.97
2023-02-19T12:36:27.699Z,15.84
2023-02-19T12:39:51.987Z,15.59
2023-02-19T12:43:14.143Z,15.70
2023-02-19T12:46:24.811Z,15.74
2023-02-19T12:49:37.205Z,15.56
2023-02-19T12:52:46.731Z,15.45
2023-02-19T12:55:50.945Z,15.17
2023-02-19T12:59:36.796Z,14.65
2023-02-19T13:02:54.301Z,14.66
2023-02-19T13:06:25.185Z,14.76
2023-02-19T13:09:43.027Z,15.03
2023-02-19T13:12:49.916Z,14.97
2023-02-19T13:15:58.971Z,15.22
2023-02-19T13:19:04.801Z,15.01
2023-02-19T13:22:41.197Z,14.68
2023-02-19T13:25:59.493Z,14.70
2023-02-19T13:29:05.450Z,14.36
2023-02-19T13:32:23.721Z,14.34
2023-02-19T13:35:42.013Z,14.48
2023-02-19T13:38:48.118Z,14.54
2023-02-19T13:41:56.914Z,14.60
2023-02-19T13:45:03.537Z,14.55
2023-02-19T13:48:33.214Z,14.58
2023-02-19T13:51:39.507Z,14.65
2023-02-19T13:54:48.944Z,14.80
2023-02-19T13:57:53.760Z,14.85
2023-02-19T14:01:14.661Z,14.90
2023-02-19T14:04:43.721Z,14.82
2023-02-19T14:07:51.224Z,14.94
2023-02-19T14:11:02.655Z,14.99
2023-02-19T14:14:33.940Z,15.02
2023-02-19T14:17:39.084Z,14.99
2023-02-19T14:20:45.428Z,14.99
2023-02-19T14:23:58.450Z,14.97
2023-02-19T14:27:02.568Z,14.98
2023-02-19T14:30:11.895Z,14.92
2023-02-19T14:33:18.915Z,14.87
2023-02-19T14:36:49.137Z,14.76
2023-02-19T14:39:54.688Z,14.79
2023-02-19T14:43:01.125Z,14.74
2023-02-19T14:46:35.001Z,14.76
2023-02-19T14:49:48.215Z,14.81
2023-02-19T14:52:56.725Z,14.70
2023-02-19T14:56:00.339Z,14.66
2023-02-19T14:59:08.824Z,14.55
2023-02-19T15:02:17.893Z,14.47
2023-02-19T15:05:26.337Z,14.52
2023-02-19T15:08:35.133Z,14.39
2023-02-19T15:11:43.450Z,14.42
2023-02-19T15:14:48.850Z,14.42
2023-02-19T15:17:54.423Z,14.31
2023-02-19T15:21:03.120Z,14.18
2023-02-19T15:24:07.229Z,14.01
2023-02-19T15:27:18.519Z,13.89
2023-02-19T15:30:29.496Z,13.94
2023-02-19T15:33:32.728Z,13.80
2023-02-19T15:36:35.673Z,13.78
2023-02-19T15:39:44.077Z,13.66
2023-02-19T15:42:47.919Z,13.78
2023-02-19T15:45:54.524Z,13.76
2023-02-19T15:49:08.292Z,13.65
2023-02-19T15:52:19.189Z,13.74
2023-02-19T15:55:26.169Z,13.76
2023-02-19T15:58:45.738Z,13.75
2023-02-19T16:01:49.504Z,13.66
2023-02-19T16:04:52.646Z,13.68
2023-02-19T16:08:17.749Z,13.62
2023-02-19T16:11:23.599Z,13.63
2023-02-19T16:14:32.327Z,13.62
2023-02-19T16:17:35.476Z,13.54
2023-02-19T16:20:38.702Z,13.51
2023-02-19T16:23:43.936Z,13.39
2023-02-19T16:26:48.363Z,13.36
2023-02-19T16:29:52.374Z,13.26
2023-02-19T16:33:49.979Z,13.34
2023-02-19T16:36:53.131Z,13.08
2023-02-19T16:40:08.672Z,13.08
2023-02-19T16:43:15.257Z,13.01
2023-02-19T16:46:18.544Z,12.94
2023-02-19T16:49:25.151Z,12.90
2023-02-19T16:52:28.702Z,12.80
2023-02-19T16:55:34.888Z,12.77
2023-02-19T16:58:39.930Z,12.76
2023-02-19T17:01:43.572Z,12.70
2023-02-19T17:04:48.568Z,12.64
2023-02-19T17:07:52.185Z,12.44
2023-02-19T17:10:56.227Z,12.55
2023-02-19T17:13:59.690Z,12.26
2023-02-19T17:17:04.031Z,12.24
2023-02-19T17:20:16.373Z,12.29
2023-02-19T17:23:24.486Z,12.27
2023-02-19T17:26:32.611Z,12.15
2023-02-19T17:29:37.301Z,12.03
2023-02-19T17:32:40.662Z,12.02
2023-02-19T17:35:44.909Z,11.86
2023-02-19T17:38:50.621Z,11.71
2023-02-19T17:41:53.754Z,11.45
2023-02-19T17:45:00.165Z,11.17
2023-02-19T17:48:03.343Z,10.92
2023-02-19T17:51:06.790Z,10.76
2023-02-19T17:54:10.110Z,10.64
2023-02-19T17:57:13.246Z,10.52
2023-02-19T18:00:20.137Z,10.38
2023-02-19T18:03:27.326Z,10.26
2023-02-19T18:06:31.260Z,10.03
2023-02-19T18:09:35.137Z,9.76
2023-02-19T18:12:39.573Z,9.49
2023-02-19T18:15:42.783Z,9.23
2023-02-19T18:18:45.968Z,9.30
2023-02-19T18:21:49.435Z,9.13
2023-02-19T18:24:53.755Z,9.02
2023-02-19T18:27:58.786Z,9.02
2023-02-19T18:31:02.846Z,9.05
2023-02-19T18:34:06.281Z,8.97
2023-02-19T18:37:09.806Z,9.03
2023-02-19T18:40:16.829Z,8.94
2023-02-19T18:43:20.092Z,8.75
2023-02-19T18:46:24.894Z,8.75
2023-02-19T18:49:36.924Z,8.73
2023-02-19T18:52:40.023Z,8.85
2023-02-19T18:55:43.477Z,8.85
2023-02-19T18:58:48.225Z,8.82
2023-02-19T19:01:53.207Z,8.87
2023-02-19T19:04:57.239Z,8.80
2023-02-19T19:08:01.979Z,8.86
2023-02-19T19:11:09.130Z,8.76
2023-02-19T19:14:12.599Z,8.77
2023-02-19T19:17:16.963Z,8.76
2023-02-19T19:20:23.303Z,8.80
2023-02-19T19:23:29.551Z,8.66
2023-02-19T19:26:33.588Z,8.64
2023-02-19T19:29:36.886Z,8.60
2023-02-19T19:32:41.148Z,8.53
2023-02-19T19:35:44.413Z,8.45
2023-02-19T19:38:48.053Z,8.37
2023-02-19T19:41:56.791Z,8.34
2023-02-19T19:45:00.143Z,8.38
2023-02-19T19:48:03.313Z,8.45
2023-02-19T19:51:08.100Z,8.36
2023-02-19T19:54:12.164Z,8.39
2023-02-19T19:57:16.140Z,8.43
2023-02-19T20:00:23.532Z,8.39
2023-02-19T20:03:27.268Z,8.41
2023-02-19T20:06:32.024Z,8.36
2023-02-19T20:09:35.435Z,8.43
2023-02-19T20:12:41.033Z,8.22
2023-02-19T20:15:44.236Z,8.23
2023-02-19T20:18:50.722Z,8.18
2023-02-19T20:21:54.658Z,8.20
2023-02-19T20:24:58.145Z,8.18
2023-02-19T20:28:01.555Z,8.15
2023-02-19T20:31:05.133Z,8.15
2023-02-19T20:34:08.411Z,8.09
2023-02-19T20:37:11.656Z,8.08
2023-02-19T20:40:17.696Z,7.99
2023-02-19T20:43:20.878Z,7.95
2023-02-19T20:46:24.008Z,8.10
2023-02-19T20:49:30.272Z,7.92
2023-02-19T20:52:33.526Z,7.96
2023-02-19T20:55:39.159Z,7.95
2023-02-19T20:58:43.453Z,7.90
2023-02-19T21:01:47.147Z,7.97
2023-02-19T21:04:51.759Z,7.89
2023-02-19T21:07:54.984Z,7.96
2023-02-19T21:10:58.113Z,7.88
2023-02-19T21:14:01.674Z,7.94
2023-02-19T21:17:05.621Z,7.88
2023-02-19T21:20:09.492Z,7.94
2023-02-19T21:23:14.022Z,7.88
2023-02-19T21:26:17.220Z,7.85
2023-02-19T21:29:22.760Z,7.76
2023-02-19T21:32:26.946Z,7.81
2023-02-19T21:35:30.319Z,7.70
2023-02-19T21:38:34.489Z,7.71
2023-02-19T21:41:37.793Z,7.56
2023-02-19T21:44:42.992Z,7.47
2023-02-19T21:47:46.141Z,7.50
2023-02-19T21:50:49.318Z,7.49
2023-02-19T21:53:52.615Z,7.40
2023-02-19T21:56:56.990Z,7.35
2023-02-19T22:00:00.069Z,7.31
2023-02-19T22:03:04.240Z,7.24
2023-02-19T22:06:08.370Z,7.25
2023-02-19T22:09:13.429Z,7.13
2023-02-19T22:12:17.331Z,7.09
2023-02-19T22:15:20.386Z,7.06
2023-02-19T22:18:23.969Z,6.98
2023-02-19T22:21:32.499Z,6.93
2023-02-19T22:24:35.708Z,7.01
2023-02-19T22:27:38.636Z,6.97
2023-02-19T22:30:42.970Z,6.95
2023-02-19T22:33:46.284Z,6.85
2023-02-19T22:36:49.380Z,6.84
2023-02-19T22:39:52.357Z,6.77
2023-02-19T22:42:55.326Z,6.76
2023-02-19T22:46:00.695Z,6.71
2023-02-19T22:49:05.747Z,6.68
2023-02-19T22:52:10.108Z,6.59
2023-02-19T22:55:13.071Z,6.63
2023-02-19T22:58:15.983Z,6.53
2023-02-19T23:01:20.033Z,6.49
2023-02-19T23:04:25.284Z,6.47
2023-02-19T23:07:28.143Z,6.50
2023-02-19T23:10:31.203Z,6.37
2023-02-19T23:13:34.126Z,6.43
2023-02-19T23:16:39.491Z,6.33
2023-02-19T23:19:43.369Z,6.33
2023-02-19T23:22:46.414Z,6.24
2023-02-19T23:25:49.612Z,6.17
2023-02-19T23:28:52.695Z,6.27
2023-02-19T23:31:57.091Z,6.17
2023-02-19T23:35:00.128Z,6.06
2023-02-19T23:38:03.150Z,5.98
2023-02-19T23:41:10.952Z,5.90
2023-02-19T23:44:13.905Z,5.91
2023-02-19T23:47:16.915Z,5.86
2023-02-19T23:50:20.536Z,5.88
2023-02-19T23:53:23.795Z,5.84
2023-02-19T23:56:28.779Z,5.81
2023-02-19T23:59:31.850Z,5.78
